Time;durP1;ratioP1;P1;durP2;ratioP2;P2;SDS_P1;SDS_P2;PMS_P1;PMS_P2;Temp;Humidity;BMP_temperature;BMP_pressure;BME280_temperature;BME280_humidity;BME280_pressure;Samples;Min_cycle;Max_cycle;Signal;HPM_P1;HPM_P2
2021/04/11 00:02:15;;;;;;;0.70;0.60;;;9.60;99.90;;;10.41;100.00;64741.28;4974446;28;20462;-70
2021/04/11 00:04:42;;;;;;;0.70;0.50;;;9.70;99.90;;;10.44;100.00;66389.41;4975322;28;20999;-70
2021/04/11 00:07:09;;;;;;;0.70;0.60;;;9.70;99.90;;;10.54;100.00;68046.88;4973193;28;20462;-69
2021/04/11 00:09:36;;;;;;;0.70;0.50;;;9.80;99.90;;;10.50;100.00;70346.75;4955480;28;20454;-71
2021/04/11 00:12:03;;;;;;;0.60;0.50;;;9.80;99.90;;;10.54;100.00;72000.00;4955258;28;20459;-70
2021/04/11 00:14:32;;;;;;;0.70;0.60;;;9.80;99.90;;;10.54;100.00;73648.47;4955248;28;20471;-69
2021/04/11 00:17:00;;;;;;;0.70;0.60;;;9.90;99.90;;;10.57;100.00;74971.75;4955660;29;20450;-71
2021/04/11 00:19:27;;;;;;;0.70;0.50;;;9.90;99.90;;;10.57;100.00;76291.69;4973638;28;20468;-71
2021/04/11 00:21:54;;;;;;;0.63;0.60;;;9.90;99.90;;;10.55;100.00;77608.72;4974466;28;20527;-71
2021/04/11 00:24:21;;;;;;;0.70;0.50;;;9.90;99.90;;;10.56;100.00;78271.16;4974732;28;20584;-71
2021/04/11 00:26:51;;;;;;;0.60;0.50;;;9.90;99.90;;;10.60;100.00;78936.50;4974771;28;20874;-71
2021/04/11 00:29:19;;;;;;;0.70;0.53;;;9.90;99.90;;;10.54;100.00;79919.22;4974513;28;20437;-71
2021/04/11 00:31:46;;;;;;;0.70;0.53;;;9.90;99.90;;;10.54;100.00;80580.03;4974241;28;20441;-71
2021/04/11 00:34:14;;;;;;;0.73;0.70;;;9.90;99.90;;;10.56;100.00;81575.03;4972875;28;21009;-70
2021/04/11 00:36:41;;;;;;;0.70;0.60;;;9.90;99.90;;;10.63;100.00;82576.19;4973978;28;20967;-70
2021/04/11 00:39:08;;;;;;;0.70;0.60;;;9.90;99.90;;;10.59;100.00;83562.53;4974245;28;20526;-70
2021/04/11 00:41:39;;;;;;;0.70;0.70;;;9.90;99.90;;;10.55;100.00;84218.97;4974073;28;20429;-71
2021/04/11 00:44:08;;;;;;;0.60;0.50;;;9.90;99.90;;;10.50;100.00;84210.91;4972959;28;20426;-70
2021/04/11 00:46:44;;;;;;;0.63;0.50;;;9.90;99.90;;;10.43;100.00;83870.66;4972656;28;20433;-71
2021/04/11 00:49:18;;;;;;;0.70;0.60;;;9.90;99.90;;;10.35;100.00;82536.59;4970965;28;20999;-71
2021/04/11 00:51:48;;;;;;;0.63;0.50;;;9.80;99.90;;;10.32;100.00;81210.50;4974299;28;20448;-71
2021/04/11 00:54:16;;;;;;;0.70;0.70;;;9.80;99.90;;;10.29;100.00;79554.78;4974064;28;20994;-70
2021/04/11 00:56:43;;;;;;;0.80;0.80;;;9.70;99.90;;;10.26;100.00;77900.06;4972775;28;20466;-70
2021/04/11 00:59:12;;;;;;;0.70;0.60;;;9.70;99.90;;;10.25;100.00;76248.94;4988109;28;20441;-71
2021/04/11 01:01:41;;;;;;;0.60;0.60;;;9.70;99.90;;;10.24;100.00;75258.19;4972364;28;20438;-70
2021/04/11 01:04:09;;;;;;;0.70;0.60;;;9.60;99.90;;;10.24;100.00;74269.03;5005149;28;20454;-71
2021/04/11 01:06:43;;;;;;;0.70;0.60;;;9.60;99.90;;;10.24;100.00;73940.00;4973785;28;20799;-71
2021/04/11 01:09:16;;;;;;;0.70;0.60;;;9.60;99.90;;;10.27;100.00;72954.44;4968739;28;20455;-69
2021/04/11 01:11:44;;;;;;;0.70;0.70;;;9.70;99.90;;;10.21;100.00;72288.38;4971226;28;20481;-71
2021/04/11 01:14:14;;;;;;;0.63;0.53;;;9.60;99.90;;;10.20;100.00;71627.59;4974016;28;20461;-70
2021/04/11 01:16:43;;;;;;;0.70;0.60;;;9.60;99.90;;;10.23;100.00;70314.00;4975696;28;20445;-68
2021/04/11 01:19:15;;;;;;;0.70;0.60;;;9.60;99.90;;;10.25;100.00;68999.53;4977393;28;20441;-70
2021/04/11 01:21:55;;;;;;;0.70;0.60;;;9.60;99.90;;;10.27;100.00;69001.97;4959627;28;20450;-70
2021/04/11 01:24:35;;;;;;;0.60;0.60;;;9.60;99.90;;;10.27;100.00;56843.97;4977409;28;20417;-70
2021/04/11 01:27:07;;;;;;;0.70;0.60;;;9.70;99.90;;;10.35;100.00;46508.63;4975923;28;20548;-70
2021/04/11 01:29:35;;;;;;;0.70;0.60;;;9.70;99.90;;;10.33;100.00;43881.44;4976637;28;20550;-70
2021/04/11 01:32:04;;;;;;;0.63;0.57;;;9.70;99.90;;;10.33;100.00;41949.75;4975503;28;20441;-70
2021/04/11 01:34:33;;;;;;;0.70;0.63;;;9.80;99.90;;;10.37;100.00;40730.34;4975579;28;20966;-70
2021/04/11 01:37:01;;;;;;;0.70;0.60;;;9.80;99.90;;;10.38;100.00;39736.41;4975632;28;20441;-70
2021/04/11 01:39:35;;;;;;;0.70;0.60;;;9.80;99.90;;;10.44;100.00;38883.97;4975520;28;21019;-70
2021/04/11 01:42:05;;;;;;;0.70;0.50;;;9.80;99.90;;;10.48;100.00;37474.50;4975423;28;20536;-70
2021/04/11 01:44:35;;;;;;;0.70;0.50;;;9.90;99.90;;;10.45;100.00;36891.38;4975444;28;20823;-70
2021/04/11 01:47:05;;;;;;;0.60;0.50;;;9.80;99.90;;;10.41;100.00;35780.47;4975400;28;20934;-70
2021/04/11 01:49:38;;;;;;;0.70;0.60;;;9.80;99.90;;;10.46;100.00;34497.59;4975304;28;20476;-70
2021/04/11 01:52:09;;;;;;;0.70;0.50;;;9.80;99.90;;;10.47;100.00;33790.38;4976796;28;20438;-70
2021/04/11 01:54:38;;;;;;;0.70;0.50;;;9.80;99.90;;;10.52;100.00;34109.22;4975406;28;20498;-70
2021/04/11 01:57:09;;;;;;;0.70;0.60;;;9.90;99.90;;;10.50;100.00;34008.34;4975368;28;20496;-70
2021/04/11 01:59:37;;;;;;;0.70;0.63;;;9.80;99.90;;;10.50;100.00;33756.59;4974575;28;20443;-70
2021/04/11 02:02:06;;;;;;;0.70;0.60;;;9.80;99.90;;;10.48;100.00;33286.94;4974514;28;20500;-70
2021/04/11 02:04:34;;;;;;;0.70;0.60;;;9.80;99.90;;;10.43;100.00;32006.31;4974633;28;20461;-70
2021/04/11 02:07:06;;;;;;;0.70;0.50;;;9.80;99.90;;;10.49;100.00;31332.78;4974755;28;20452;-70
2021/04/11 02:09:46;;;;;;;0.70;0.60;;;9.80;99.90;;;10.45;100.00;30267.53;4975149;28;20799;-70
2021/04/11 02:12:30;;;;;;;0.70;0.60;;;9.80;99.90;;;10.54;100.00;29552.91;4977119;28;20478;-70
2021/04/11 02:15:12;;;;;;;0.70;0.60;;;9.80;99.90;;;10.58;100.00;31302.72;4974464;28;20827;-70
2021/04/11 02:17:39;;;;;;;0.60;0.50;;;9.80;99.90;;;10.59;100.00;29471.75;4976030;28;20439;-70
2021/04/11 02:20:10;;;;;;;0.60;0.50;;;9.90;99.90;;;10.66;100.00;28091.75;4973476;28;20449;-71
2021/04/11 02:22:44;;;;;;;0.70;0.60;;;10.00;99.90;;;10.60;100.00;26622.59;4975730;28;20478;-70
2021/04/11 02:25:16;;;;;;;0.70;0.63;;;10.00;99.90;;;10.54;100.00;24587.59;5007654;28;20449;-70
2021/04/11 02:27:48;;;;;;;0.70;0.60;;;9.90;99.90;;;10.51;100.00;21243.88;4973700;28;20475;-70
2021/04/11 02:30:21;;;;;;;0.60;0.60;;;9.90;99.90;;;10.45;100.00;18031.81;4973574;28;20454;-70
2021/04/11 02:32:49;;;;;;;0.70;0.60;;;9.80;99.90;;;10.41;100.00;14138.59;4974301;28;20439;-70
2021/04/11 02:35:21;;;;;;;0.63;0.60;;;9.80;99.90;;;10.39;100.00;10951.13;4976150;28;20462;-70
2021/04/11 02:37:55;;;;;;;0.70;0.60;;;9.80;99.90;;;10.42;100.00;8219.78;4974327;28;20465;-70
2021/04/11 02:40:29;;;;;;;0.70;0.50;;;9.80;99.90;;;10.47;100.00;5811.41;5006932;28;20482;-70
2021/04/11 02:42:59;;;;;;;0.70;0.60;;;9.80;99.90;;;10.47;100.00;3863.06;4974556;28;20798;-71
2021/04/11 02:45:33;;;;;;;0.70;0.60;;;9.90;99.90;;;10.47;100.00;1895.69;4974022;28;20448;-71
2021/04/11 02:48:06;;;;;;;1.13;0.83;;;9.80;99.90;;;10.49;100.00;337.94;4974227;28;20458;-71
2021/04/11 02:50:44;;;;;;;0.67;0.60;;;9.80;99.90;;;10.44;100.00;-1065.91;4974458;28;20987;-71
2021/04/11 02:53:19;;;;;;;0.70;0.60;;;9.80;99.90;;;10.43;100.00;-3163.69;4973949;28;20444;-70
2021/04/11 02:55:50;;;;;;;0.60;0.50;;;9.80;99.90;;;10.43;100.00;-4900.28;4975220;28;20536;-71
2021/04/11 02:58:22;;;;;;;0.60;0.53;;;9.80;99.90;;;10.51;100.00;-6731.88;4975018;28;20556;-70
2021/04/11 03:00:58;;;;;;;0.70;0.60;;;9.80;99.90;;;10.58;100.00;-8356.72;4975292;28;20527;-71
2021/04/11 03:03:27;;;;;;;0.70;0.50;;;9.90;99.90;;;10.58;100.00;-9319.47;4974999;28;20438;-70
2021/04/11 03:06:01;;;;;;;0.70;0.70;;;9.90;99.90;;;10.52;100.00;-10213.50;4974066;28;20422;-71
2021/04/11 03:08:35;;;;;;;0.70;0.60;;;9.90;99.90;;;10.58;100.00;-11178.84;4958323;28;20442;-71
2021/04/11 03:11:15;;;;;;;0.63;0.63;;;9.90;99.90;;;10.66;100.00;-11764.94;4975525;28;20477;-70
2021/04/11 03:13:44;;;;;;;0.70;0.60;;;9.90;99.90;;;10.65;100.00;-12314.91;4973727;28;20889;-71
2021/04/11 03:16:11;;;;;;;0.70;0.60;;;9.80;99.90;;;10.63;100.00;-11541.16;4973725;28;20475;-71
2021/04/11 03:18:41;;;;;;;0.70;0.60;;;9.70;99.90;;;10.51;100.00;-9952.09;4973774;28;20516;-70
2021/04/11 03:21:10;;;;;;;1.00;1.00;;;9.40;99.90;;;10.41;100.00;-7644.16;4973937;28;20439;-71
2021/04/11 03:23:39;;;;;;;0.70;0.60;;;9.20;99.90;;;10.19;100.00;-5928.53;4973605;28;20438;-70
2021/04/11 03:26:28;;;;;;;0.67;0.50;;;9.00;99.90;;;9.97;100.00;-4841.84;4973243;28;20470;-70
2021/04/11 03:29:08;;;;;;;0.70;0.60;;;8.90;99.90;;;9.76;100.00;-4142.75;4974459;28;20863;-70
2021/04/11 03:31:40;;;;;;;0.70;0.50;;;8.70;99.90;;;9.61;100.00;-3722.97;4973321;28;20448;-70
2021/04/11 03:34:10;;;;;;;0.70;0.60;;;8.60;99.90;;;9.56;100.00;-3361.00;4973114;28;20432;-70
2021/04/11 03:36:41;;;;;;;0.70;0.50;;;8.50;99.90;;;9.52;100.00;-3252.97;4973720;28;20799;-70
2021/04/11 03:39:11;;;;;;;0.70;0.60;;;8.50;99.90;;;9.41;100.00;-3109.84;4973242;28;20802;-70
2021/04/11 03:41:41;;;;;;;0.70;0.60;;;8.30;99.90;;;9.32;100.00;-3125.06;4972383;28;20481;-71
2021/04/11 03:44:18;;;;;;;0.63;0.50;;;8.20;99.90;;;9.16;100.00;-3009.72;4978959;28;20443;-71
2021/04/11 03:47:03;;;;;;;0.70;0.50;;;8.00;99.90;;;8.94;100.00;-3175.84;4973298;28;20948;-70
2021/04/11 03:49:48;;;;;;;0.70;0.50;;;7.90;99.90;;;8.76;100.00;-3407.06;4973157;28;20505;-71
2021/04/11 03:52:26;;;;;;;0.70;0.60;;;7.70;99.90;;;8.60;100.00;-3412.25;4973255;28;20448;-71
2021/04/11 03:54:55;;;;;;;0.70;0.60;;;7.50;99.90;;;8.64;100.00;-3324.34;4973351;28;20474;-71
2021/04/11 03:57:27;;;;;;;0.60;0.50;;;7.50;99.90;;;8.56;100.00;-3718.47;4973889;28;20483;-71
2021/04/11 04:00:07;;;;;;;0.70;0.60;;;7.40;99.90;;;8.25;100.00;-4195.13;4974713;28;20519;-70
2021/04/11 04:02:56;;;;;;;0.70;0.50;;;7.20;99.90;;;8.32;100.00;-3899.19;4972755;28;20513;-71
2021/04/11 04:05:30;;;;;;;1.13;1.03;;;7.20;99.90;;;8.10;100.00;-3921.78;4973053;28;20440;-71
2021/04/11 04:08:04;;;;;;;0.70;0.50;;;7.00;99.90;;;8.09;100.00;-4192.56;4973184;28;20458;-70
2021/04/11 04:10:37;;;;;;;0.70;0.70;;;7.00;99.90;;;8.02;100.00;-4255.22;4973105;28;20440;-71
2021/04/11 04:13:32;;;;;;;0.60;0.50;;;6.90;99.90;;;7.92;100.00;-4741.41;4966677;28;20468;-71
2021/04/11 04:16:15;;;;;;;0.60;0.50;;;6.90;99.90;;;7.88;100.00;-6314.72;4972945;28;20480;-71
2021/04/11 04:19:31;;;;;;;0.70;0.50;;;6.80;99.90;;;7.85;100.00;-7323.81;4971811;28;20434;-71
2021/04/11 04:22:09;;;;;;;0.70;0.50;;;6.80;99.90;;;7.73;100.00;-7961.47;4973101;28;20436;-71
2021/04/11 04:25:13;;;;;;;0.60;0.50;;;6.80;99.90;;;7.80;100.00;-10764.28;4973052;28;20448;-70
2021/04/11 04:28:10;;;;;;;0.70;0.60;;;6.70;99.90;;;7.73;100.00;-12990.97;4972682;28;20895;-71
2021/04/11 04:30:55;;;;;;;0.70;0.60;;;6.70;99.90;;;7.71;100.00;-17992.25;4969478;28;20542;-70
2021/04/11 04:33:53;;;;;;;0.70;0.57;;;6.60;99.90;;;7.60;100.00;-19042.31;5005620;28;20738;-70
2021/04/11 04:36:39;;;;;;;0.70;0.50;;;6.50;99.90;;;7.53;100.00;-19569.03;4989324;28;20478;-69
2021/04/11 04:39:32;;;;;;;0.70;0.60;;;6.50;99.90;;;7.43;100.00;-20005.28;4972804;28;20454;-69
2021/04/11 04:42:16;;;;;;;0.70;0.63;;;6.50;99.90;;;7.53;100.00;-20307.06;4953704;29;20522;-69
2021/04/11 04:45:00;;;;;;;0.70;0.50;;;6.50;99.90;;;7.48;100.00;-20569.91;4959198;28;20459;-70
2021/04/11 04:47:45;;;;;;;0.70;0.53;;;6.40;99.90;;;7.39;100.00;-20883.28;4971442;28;20448;-69
2021/04/11 04:50:20;;;;;;;0.67;0.50;;;6.30;99.90;;;7.35;100.00;-20882.16;5006414;28;20535;-69
2021/04/11 04:53:08;;;;;;;0.70;0.60;;;6.20;99.90;;;7.23;100.00;-20879.09;4976159;28;20440;-71
2021/04/11 04:55:39;;;;;;;0.70;0.50;;;6.10;99.90;;;7.10;100.00;-20875.50;4977754;28;20464;-69
2021/04/11 04:58:14;;;;;;;0.70;0.60;;;6.10;99.90;;;6.98;100.00;-20872.16;4975030;28;21035;-70
2021/04/11 05:00:50;;;;;;;0.70;0.60;;;6.00;99.90;;;6.96;100.00;-20871.59;4975680;28;20435;-70
2021/04/11 05:03:34;;;;;;;0.60;0.50;;;5.90;99.90;;;6.81;100.00;-20867.44;5009041;28;20223;-71
2021/04/11 05:06:21;;;;;;;0.70;0.60;;;5.80;99.90;;;6.70;100.00;-20864.50;5009104;28;20435;-69
2021/04/11 05:09:17;;;;;;;0.70;0.60;;;5.70;99.90;;;6.59;100.00;-20861.59;4977170;28;20769;-70
2021/04/11 05:11:55;;;;;;;0.70;0.60;;;5.70;99.90;;;6.58;100.00;-20861.31;4976175;28;20571;-70
2021/04/11 05:14:29;;;;;;;0.70;0.70;;;5.50;99.90;;;6.66;100.00;-20863.41;4975937;28;20209;-69
2021/04/11 05:17:04;;;;;;;0.70;0.60;;;5.50;99.90;;;6.46;100.00;-20858.00;4975922;28;20599;-70
2021/04/11 05:19:40;;;;;;;0.70;0.60;;;5.50;99.90;;;6.59;100.00;-20861.59;4973001;28;20456;-69
2021/04/11 05:22:37;;;;;;;0.70;0.60;;;5.40;99.90;;;6.56;100.00;-20860.78;4957600;28;20795;-70
2021/04/11 05:25:16;;;;;;;0.70;0.50;;;5.40;99.90;;;6.34;100.00;-20854.78;5007609;28;20203;-70
2021/04/11 05:27:54;;;;;;;0.70;0.60;;;5.30;99.90;;;6.21;100.00;-20851.31;4976170;28;20216;-70
2021/04/11 05:30:28;;;;;;;0.70;0.50;;;5.30;99.90;;;6.37;100.00;-20855.47;4975261;28;20685;-71
2021/04/11 05:32:56;;;;;;;0.70;0.60;;;5.20;99.90;;;6.23;100.00;-20851.72;4975111;28;20199;-70
2021/04/11 05:35:24;;;;;;;0.77;0.77;;;5.30;99.90;;;6.36;100.00;-20855.34;5007598;28;20243;-70
2021/04/11 05:38:08;;;;;;;0.70;0.60;;;5.20;99.90;;;6.22;100.00;-20851.59;4975665;28;20204;-71
2021/04/11 05:40:40;;;;;;;0.70;0.60;;;5.30;99.90;;;6.21;100.00;-20851.31;4975358;28;20188;-70
2021/04/11 05:43:16;;;;;;;0.70;0.60;;;5.20;99.90;;;6.12;100.00;-20848.81;4974706;28;20227;-71
2021/04/11 05:45:58;;;;;;;1.17;1.08;;;5.10;99.90;;;6.09;100.00;-20847.84;4974545;28;20203;-71
2021/04/11 05:48:37;;;;;;;0.70;0.60;;;5.00;99.90;;;6.08;100.00;-20847.56;4973110;28;20281;-70
2021/04/11 05:51:11;;;;;;;0.70;0.70;;;5.00;99.90;;;6.12;100.00;-20848.81;4975151;28;21072;-71
2021/04/11 05:53:45;;;;;;;0.70;0.60;;;5.00;99.90;;;6.10;100.00;-20848.25;4974841;28;20273;-71
2021/04/11 05:56:18;;;;;;;1.13;1.02;;;5.00;99.90;;;6.05;100.00;-20847.00;4976047;28;20661;-71
2021/04/11 05:58:52;;;;;;;0.80;0.75;;;4.90;99.90;;;6.07;100.00;-20847.41;4972946;28;20653;-71
2021/04/11 06:01:25;;;;;;;0.70;0.60;;;4.90;99.90;;;5.97;100.00;-20844.78;4973687;28;20196;-72
2021/04/11 06:04:00;;;;;;;0.70;0.50;;;4.90;99.90;;;5.95;100.00;-20844.09;4974464;28;20200;-70
2021/04/11 06:06:37;;;;;;;0.70;0.70;;;4.90;99.90;;;5.96;100.00;-20844.34;4975629;28;20587;-71
2021/04/11 06:09:09;;;;;;;0.70;0.60;;;4.90;99.90;;;5.72;100.00;-20837.97;4975993;28;20192;-71
2021/04/11 06:11:44;;;;;;;0.70;0.60;;;4.80;99.90;;;5.85;100.00;-20841.28;4974588;28;20185;-70
2021/04/11 06:14:19;;;;;;;0.70;0.60;;;4.80;99.90;;;5.86;100.00;-20841.72;4973994;28;20195;-71
2021/04/11 06:16:47;;;;;;;0.70;0.60;;;4.80;99.90;;;5.94;100.00;-20843.81;4973938;28;20212;-71
2021/04/11 06:19:15;;;;;;;0.70;0.60;;;4.80;99.90;;;5.86;100.00;-20841.56;4971959;28;20259;-71
2021/04/11 06:21:58;;;;;;;0.60;0.50;;;4.90;99.90;;;5.88;100.00;-20842.13;4975136;28;20188;-71
2021/04/11 06:24:38;;;;;;;0.70;0.60;;;4.80;99.90;;;6.05;100.00;-20846.88;4976610;28;20184;-71
2021/04/11 06:27:29;;;;;;;0.70;0.60;;;4.80;99.90;;;5.95;100.00;-20844.22;4975117;28;20559;-71
2021/04/11 06:30:06;;;;;;;0.70;0.60;;;4.80;99.90;;;5.76;100.00;-20838.94;4970967;28;20205;-71
2021/04/11 06:32:40;;;;;;;0.70;0.60;;;4.70;99.90;;;5.83;100.00;-20840.88;4966688;28;20188;-71
2021/04/11 06:35:11;;;;;;;0.70;0.60;;;4.80;99.90;;;5.86;100.00;-20841.56;4972804;28;20227;-72
2021/04/11 06:37:43;;;;;;;0.70;0.60;;;4.70;99.90;;;5.86;100.00;-20841.56;4973685;28;20208;-71
2021/04/11 06:40:26;;;;;;;0.70;0.50;;;4.70;99.90;;;5.81;100.00;-20840.31;4974783;28;20247;-71
2021/04/11 06:43:32;;;;;;;1.27;1.17;;;4.70;99.90;;;5.69;100.00;-20836.97;5006766;28;20550;-71
2021/04/11 06:46:06;;;;;;;2.45;1.77;;;4.50;99.90;;;5.65;100.00;-20836.00;4975548;28;20180;-71
2021/04/11 06:49:01;;;;;;;0.90;0.90;;;4.40;99.90;;;5.62;100.00;-20835.16;4973506;28;20184;-73
2021/04/11 06:52:09;;;;;;;0.70;0.60;;;4.40;99.90;;;5.57;100.00;-20833.78;4970665;28;20211;-73
2021/04/11 06:55:21;;;;;;;0.70;0.50;;;4.50;99.90;;;5.58;100.00;-20834.06;4966505;28;20208;-71
2021/04/11 06:58:01;;;;;;;0.70;0.60;;;4.60;99.90;;;5.65;100.00;-20836.00;4973762;28;20696;-71
2021/04/11 07:00:58;;;;;;;0.70;0.60;;;4.40;99.90;;;5.52;100.00;-20832.53;4975552;28;20620;-71
2021/04/11 07:04:06;;;;;;;0.70;0.60;;;4.30;99.90;;;5.40;100.00;-20829.19;4975012;28;20192;-72
2021/04/11 07:07:19;;;;;;;0.70;0.60;;;4.40;99.90;;;5.47;100.00;-20831.00;4975346;28;20565;-72
2021/04/11 07:09:50;;;;;;;0.70;0.60;;;4.40;99.90;;;5.58;100.00;-20834.06;4974396;28;20196;-70
2021/04/11 07:13:23;;;;;;;1.15;1.05;;;4.50;99.90;;;5.41;100.00;-20829.31;4974429;28;20703;-71
2021/04/11 07:16:50;;;;;;;0.93;0.93;;;4.40;99.90;;;5.58;100.00;-20834.06;4974671;28;20221;-72
2021/04/11 07:20:20;;;;;;;0.70;0.60;;;4.30;99.90;;;5.60;100.00;-20834.47;4932599;29;20197;-70
2021/04/11 07:23:40;;;;;;;0.70;0.70;;;4.30;99.90;;;5.42;100.00;-20829.59;4973973;28;20653;-73
2021/04/11 07:26:35;;;;;;;0.70;0.60;;;4.20;99.90;;;5.43;100.00;-20829.88;4973739;28;20180;-72
2021/04/11 07:29:20;;;;;;;0.70;0.60;;;4.30;99.90;;;5.44;100.00;-20830.31;4971330;28;20271;-71
2021/04/11 07:32:07;;;;;;;0.70;0.50;;;4.30;99.90;;;5.51;100.00;-20832.25;4973732;28;20278;-70
2021/04/11 07:35:14;;;;;;;0.70;0.60;;;4.30;99.90;;;5.60;100.00;-20834.47;4972316;28;20207;-70
2021/04/11 07:38:26;;;;;;;0.70;0.50;;;4.30;99.90;;;5.42;100.00;-20829.59;4972155;28;20207;-69
2021/04/11 07:41:31;;;;;;;0.70;0.60;;;4.40;99.90;;;5.51;100.00;-20832.13;4964777;28;20188;-70
2021/04/11 07:44:31;;;;;;;0.70;0.50;;;4.30;99.90;;;5.39;100.00;-20828.78;4968497;28;20195;-70
2021/04/11 07:47:41;;;;;;;0.70;0.60;;;4.30;99.90;;;5.45;100.00;-20830.44;4969219;28;20197;-70
2021/04/11 07:50:29;;;;;;;0.70;0.60;;;4.40;99.90;;;5.54;100.00;-20832.94;4970797;28;20215;-69
2021/04/11 07:53:32;;;;;;;0.70;0.60;;;4.30;99.90;;;5.61;100.00;-20834.91;4966961;28;20195;-69
2021/04/11 07:56:16;;;;;;;1.25;1.10;;;4.30;99.90;;;5.55;100.00;-20833.38;4970832;28;20200;-70
2021/04/11 07:59:09;;;;;;;0.70;0.60;;;4.30;99.90;;;5.69;100.00;-20836.97;4973947;28;20219;-71
2021/04/11 08:02:06;;;;;;;0.70;0.60;;;4.30;99.90;;;5.62;100.00;-20835.03;4963591;28;20196;-70
2021/04/11 08:05:06;;;;;;;0.95;0.85;;;4.30;99.90;;;5.61;100.00;-20834.91;4973291;28;20200;-70
2021/04/11 08:07:58;;;;;;;0.70;0.60;;;4.30;99.90;;;5.48;100.00;-20831.28;4960023;28;20204;-69
2021/04/11 08:10:55;;;;;;;0.70;0.50;;;4.30;99.90;;;5.66;100.00;-20836.16;4973252;28;20191;-70
2021/04/11 08:14:04;;;;;;;0.70;0.70;;;4.40;99.90;;;5.57;100.00;-20833.91;4973107;28;20267;-70
2021/04/11 08:17:00;;;;;;;0.70;0.60;;;4.40;99.90;;;5.61;100.00;-20834.75;4953732;28;20285;-71
2021/04/11 08:20:01;;;;;;;0.70;0.60;;;4.40;99.90;;;5.61;100.00;-20834.75;4974302;28;20633;-69
2021/04/11 08:23:01;;;;;;;0.70;0.60;;;4.30;99.90;;;5.59;100.00;-20834.34;4974137;28;20192;-70
2021/04/11 08:25:37;;;;;;;1.17;1.08;;;4.30;99.90;;;5.51;100.00;-20832.13;4955978;28;20260;-69
2021/04/11 08:28:55;;;;;;;0.70;0.60;;;4.30;99.90;;;5.56;100.00;-20833.50;4961197;28;20212;-69
2021/04/11 08:32:12;;;;;;;0.70;0.60;;;4.40;99.90;;;5.56;100.00;-20833.50;4960412;28;20209;-69
2021/04/11 08:35:11;;;;;;;0.70;0.60;;;4.50;99.90;;;5.72;100.00;-20837.81;4978138;28;20181;-70
2021/04/11 08:38:18;;;;;;;0.70;0.50;;;4.40;99.90;;;5.75;100.00;-20838.78;4978959;28;20211;-69
2021/04/11 08:41:12;;;;;;;0.70;0.60;;;4.30;99.90;;;5.56;100.00;-20833.50;4977156;28;20207;-69
2021/04/11 08:44:07;;;;;;;0.70;0.50;;;4.20;99.90;;;5.45;100.00;-20830.44;4978534;28;20212;-71
2021/04/11 08:46:52;;;;;;;0.70;0.50;;;4.20;99.90;;;5.45;100.00;-20830.44;4978191;28;20194;-70
2021/04/11 08:49:24;;;;;;;0.70;0.60;;;4.30;99.90;;;5.45;100.00;-20830.44;4974152;28;20188;-70
2021/04/11 08:52:02;;;;;;;0.70;0.60;;;4.20;99.90;;;5.43;100.00;-20829.88;4977328;28;20196;-70
2021/04/11 08:54:48;;;;;;;0.70;0.60;;;4.20;99.90;;;5.39;100.00;-20828.78;4977862;28;20188;-69
2021/04/11 08:57:38;;;;;;;0.70;0.60;;;4.30;99.90;;;5.35;100.00;-20827.66;4977463;28;20215;-70
2021/04/11 09:00:17;;;;;;;0.70;0.50;;;4.20;99.90;;;5.27;100.00;-20825.72;4971585;28;20653;-70
2021/04/11 09:03:22;;;;;;;0.70;0.60;;;4.10;99.90;;;5.24;100.00;-20824.88;4975260;28;20199;-69
2021/04/11 09:06:02;;;;;;;0.70;0.60;;;4.00;99.90;;;5.11;100.00;-20821.25;4970168;28;20188;-70
2021/04/11 09:08:34;;;;;;;0.70;0.57;;;4.10;99.90;;;5.35;100.00;-20827.81;4977858;28;20203;-70
2021/04/11 09:11:25;;;;;;;0.70;0.60;;;4.10;99.90;;;5.49;100.00;-20831.69;4959819;28;20193;-69
2021/04/11 09:14:08;;;;;;;0.70;0.60;;;4.10;99.90;;;5.45;100.00;-20830.59;4977704;28;20195;-70
2021/04/11 09:16:47;;;;;;;0.70;0.57;;;4.00;99.90;;;5.37;100.00;-20828.34;4976218;28;20204;-69
2021/04/11 09:19:24;;;;;;;0.70;0.60;;;4.10;99.90;;;5.51;100.00;-20832.25;4977124;28;20724;-70
2021/04/11 09:22:23;;;;;;;0.70;0.60;;;4.10;99.90;;;5.38;100.00;-20828.63;4975340;28;20180;-70
2021/04/11 09:24:59;;;;;;;0.70;0.60;;;4.20;99.90;;;5.38;100.00;-20828.50;4975686;28;20193;-70
2021/04/11 09:28:09;;;;;;;0.70;0.60;;;4.10;99.90;;;5.28;100.00;-20826.00;4972104;28;20306;-71
2021/04/11 09:31:23;;;;;;;0.90;0.90;;;4.10;99.90;;;5.36;100.00;-20827.94;4976341;28;20206;-70
2021/04/11 09:34:27;;;;;;;0.70;0.60;;;4.00;99.90;;;5.35;100.00;-20827.66;4967270;28;20216;-71
2021/04/11 09:37:13;;;;;;;0.70;0.60;;;4.10;99.90;;;5.37;100.00;-20828.34;4974565;28;20208;-70
2021/04/11 09:40:06;;;;;;;0.70;0.60;;;4.10;99.90;;;5.30;100.00;-20826.56;4975127;28;20542;-70
2021/04/11 09:43:23;;;;;;;0.80;0.75;;;4.00;99.90;;;5.28;100.00;-20826.00;4976820;28;20303;-70
2021/04/11 09:46:22;;;;;;;0.70;0.60;;;4.00;99.90;;;5.35;100.00;-20827.66;4977194;28;20192;-70
2021/04/11 09:49:35;;;;;;;0.70;0.60;;;4.10;99.90;;;5.30;100.00;-20826.56;4976141;28;20192;-70
2021/04/11 09:52:50;;;;;;;0.70;0.60;;;4.00;99.90;;;5.38;100.00;-20828.50;4971530;28;20586;-70
2021/04/11 09:55:24;;;;;;;0.70;0.70;;;4.00;99.90;;;5.35;100.00;-20827.66;4975999;28;20760;-70
2021/04/11 09:58:29;;;;;;;0.70;0.60;;;4.10;99.90;;;5.36;100.00;-20827.94;4976261;28;20767;-71
2021/04/11 10:01:05;;;;;;;0.70;0.60;;;4.10;99.90;;;5.24;100.00;-20824.75;4975498;28;20196;-71
2021/04/11 10:03:46;;;;;;;0.70;0.60;;;4.10;99.90;;;5.25;100.00;-20825.16;4975016;28;20211;-71
2021/04/11 10:06:33;;;;;;;0.70;0.60;;;4.20;99.90;;;5.46;100.00;-20830.88;4976379;28;20192;-71
2021/04/11 10:09:37;;;;;;;0.70;0.60;;;4.20;99.90;;;5.43;100.00;-20830.03;4975922;28;20192;-71
2021/04/11 10:12:31;;;;;;;0.70;0.60;;;4.20;99.90;;;5.41;100.00;-20829.31;4966600;28;20318;-70
2021/04/11 10:15:09;;;;;;;0.70;0.60;;;4.20;99.90;;;5.57;100.00;-20833.78;4976462;28;20528;-70
2021/04/11 10:18:36;;;;;;;0.70;0.60;;;4.30;99.90;;;5.53;100.00;-20832.81;4973944;28;20215;-70
2021/04/11 10:21:20;;;;;;;0.70;0.60;;;4.20;99.90;;;5.39;100.00;-20828.78;4988346;28;20195;-70
2021/04/11 10:24:34;;;;;;;0.70;0.50;;;4.30;99.90;;;5.52;100.00;-20832.53;4974734;28;20207;-70
2021/04/11 10:27:11;;;;;;;0.70;0.50;;;4.20;99.90;;;5.38;100.00;-20828.50;4998599;28;20208;-72
2021/04/11 10:29:43;;;;;;;0.70;0.60;;;4.20;99.90;;;5.43;100.00;-20829.88;4973130;28;20183;-71
2021/04/11 10:32:19;;;;;;;0.70;0.60;;;4.10;99.90;;;5.40;100.00;-20829.06;4975833;28;20643;-71
2021/04/11 10:35:01;;;;;;;0.70;0.60;;;4.10;99.90;;;5.25;100.00;-20825.16;4976031;28;20254;-70
2021/04/11 10:37:36;;;;;;;0.70;0.60;;;4.10;99.90;;;5.28;100.00;-20825.84;4974551;28;20216;-70
2021/04/11 10:40:26;;;;;;;0.70;0.50;;;4.10;99.90;;;5.14;100.00;-20822.09;4975914;28;20187;-70
2021/04/11 10:43:14;;;;;;;0.70;0.60;;;4.10;99.90;;;5.44;100.00;-20830.16;4974234;28;20216;-70
2021/04/11 10:45:47;;;;;;;0.70;0.60;;;4.10;99.90;;;5.33;100.00;-20827.25;4974609;28;20669;-72
2021/04/11 10:49:01;;;;;;;0.70;0.60;;;4.20;99.90;;;5.44;100.00;-20830.16;4974222;28;20668;-72
2021/04/11 10:52:22;;;;;;;0.70;0.60;;;4.20;99.90;;;5.29;100.00;-20826.13;4975482;28;20243;-70
2021/04/11 10:55:24;;;;;;;0.70;0.60;;;4.10;99.90;;;5.40;100.00;-20829.06;4975716;28;20637;-70
2021/04/11 10:58:25;;;;;;;0.70;0.60;;;4.10;99.90;;;5.40;100.00;-20829.06;4975041;28;20229;-70
2021/04/11 11:01:18;;;;;;;0.70;0.50;;;4.20;99.90;;;5.50;100.00;-20831.97;4955856;29;20204;-72
2021/04/11 11:04:28;;;;;;;0.70;0.57;;;4.40;99.90;;;5.31;100.00;-20826.69;4967911;28;20594;-72
2021/04/11 11:07:19;;;;;;;0.70;0.60;;;4.30;99.90;;;5.57;100.00;-20833.78;4962608;28;20204;-70
2021/04/11 11:09:53;;;;;;;0.70;0.50;;;4.30;99.90;;;5.54;100.00;-20832.94;4974645;28;20292;-70
2021/04/11 11:12:59;;;;;;;0.70;0.60;;;4.20;99.90;;;5.48;100.00;-20831.28;4975525;28;20273;-70
2021/04/11 11:15:47;;;;;;;0.70;0.60;;;4.30;99.90;;;5.47;100.00;-20831.00;4942609;28;20208;-71
2021/04/11 11:18:39;;;;;;;0.70;0.60;;;4.40;99.90;;;5.77;100.00;-20839.34;4974610;28;20194;-71
2021/04/11 11:21:41;;;;;;;0.70;0.60;;;4.50;99.90;;;5.71;100.00;-20837.69;4961958;28;20197;-71
2021/04/11 11:24:22;;;;;;;0.70;0.60;;;4.50;99.90;;;6.02;100.00;-20846.03;4974220;28;20534;-70
2021/04/11 11:27:41;;;;;;;0.70;0.60;;;4.70;99.90;;;6.19;100.00;-20850.75;4972973;28;20457;-70